Time;durP1;ratioP1;P1;durP2;ratioP2;P2;SDS_P1;SDS_P2;PMS_P1;PMS_P2;Temp;Humidity;BMP_temperature;BMP_pressure;BME280_temperature;BME280_humidity;BME280_pressure;Samples;Min_cycle;Max_cycle;Signal;HPM_P1;HPM_P2
2022/01/10 00:00:38;;;;;;;5.10;3.60;;;;;;;4.75;69.39;98625.66;25103;1315;3051900;-64
2022/01/10 00:03:07;;;;;;;5.60;3.50;;;;;;;4.49;69.70;98627.94;25087;1315;3027264;-62
2022/01/10 00:05:37;;;;;;;7.20;3.30;;;;;;;4.29;70.39;98627.19;25083;1318;3026565;-61
2022/01/10 00:08:06;;;;;;;6.80;3.60;;;;;;;4.08;71.07;98620.20;25094;1315;3026730;-61
2022/01/10 00:10:35;;;;;;;8.50;4.10;;;;;;;3.94;71.62;98622.60;25109;1315;3053461;-62
2022/01/10 00:13:19;;;;;;;6.00;4.20;;;;;;;3.81;72.12;98625.50;25135;1315;3059287;-62
2022/01/10 00:16:07;;;;;;;5.50;3.80;;;;;;;3.63;72.75;98630.10;25065;1315;3049965;-60
2022/01/10 00:18:37;;;;;;;10.10;3.90;;;;;;;3.56;73.27;98626.96;25064;1317;3026847;-62
2022/01/10 00:21:06;;;;;;;8.30;4.30;;;;;;;3.57;72.94;98627.11;25087;1315;3026904;-61
2022/01/10 00:23:36;;;;;;;7.00;3.80;;;;;;;3.46;73.81;98623.61;25102;1315;3051919;-61
2022/01/10 00:26:05;;;;;;;4.20;3.00;;;;;;;3.99;72.88;98619.75;25087;1315;3026931;-63
2022/01/10 00:28:35;;;;;;;5.40;3.40;;;;;;;4.57;70.72;98617.88;25075;1315;3026629;-64
2022/01/10 00:31:04;;;;;;;4.70;3.20;;;;;;;4.64;70.20;98618.38;25063;1315;3026690;-62
2022/01/10 00:33:33;;;;;;;7.70;3.90;;;;;;;4.53;70.41;98611.66;25101;1315;3054728;-61
2022/01/10 00:36:02;;;;;;;9.00;3.80;;;;;;;4.31;70.93;98618.13;25065;1315;3026267;-62
2022/01/10 00:38:34;;;;;;;10.30;4.00;;;;;;;4.17;71.39;98620.14;25085;1315;3026981;-63
2022/01/10 00:41:04;;;;;;;5.70;4.30;;;;;;;4.01;71.97;98618.15;25093;1314;3026854;-63
2022/01/10 00:43:36;;;;;;;11.90;4.20;;;;;;;3.88;72.39;98615.65;25089;1316;3026465;-63
2022/01/10 00:46:05;;;;;;;6.40;3.30;;;;;;;3.75;72.92;98614.82;25136;1315;3070366;-61
2022/01/10 00:48:34;;;;;;;6.30;3.70;;;;;;;3.69;72.91;98610.09;25052;1315;3026763;-62
2022/01/10 00:51:02;;;;;;;8.00;3.70;;;;;;;3.60;73.58;98608.42;25087;1316;3053692;-63
2022/01/10 00:53:31;;;;;;;6.90;3.60;;;;;;;3.53;73.80;98604.91;25076;1315;3026461;-62
2022/01/10 00:56:03;;;;;;;5.30;3.30;;;;;;;4.00;72.99;98601.38;25045;1315;3053763;-61
2022/01/10 00:58:32;;;;;;;9.50;3.80;;;;;;;4.60;71.31;98599.70;25086;1315;3030367;-62
2022/01/10 01:01:04;;;;;;;7.90;3.90;;;;;;;4.65;70.41;98598.02;25062;1315;3026554;-61
2022/01/10 01:03:35;;;;;;;10.70;4.20;;;;;;;4.52;70.63;98595.75;25053;1315;3051713;-62
2022/01/10 01:06:03;;;;;;;8.70;4.20;;;;;;;4.42;70.99;98599.17;25087;1318;3026502;-61
2022/01/10 01:08:34;;;;;;;6.70;4.00;;;;;;;4.18;71.53;98600.50;25055;1315;3071108;-61
2022/01/10 01:14:08;;;;;;;8.10;4.40;;;;;;;3.84;72.90;98608.17;24960;1318;3052010;-61
2022/01/10 01:24:24;;;;;;;9.10;3.30;;;;;;;3.48;74.30;98604.12;25070;1315;3051951;-59
2022/01/10 01:26:56;;;;;;;6.90;3.60;;;;;;;4.07;73.05;98600.16;25084;1315;3028708;-63
2022/01/10 01:29:27;;;;;;;5.40;3.30;;;;;;;4.68;71.02;98597.92;24934;1315;3228483;-64
2022/01/10 01:31:57;;;;;;;6.80;3.40;;;;;;;4.66;70.32;98596.98;25106;1315;3052138;-63
2022/01/10 01:34:26;;;;;;;6.80;4.10;;;;;;;4.52;70.66;98592.80;25088;1315;3026168;-61
2022/01/10 01:36:56;;;;;;;6.80;4.10;;;;;;;4.31;71.05;98589.33;25071;1315;3026162;-62
2022/01/10 01:39:28;;;;;;;7.60;4.40;;;;;;;4.08;71.93;98595.63;25060;1315;3055603;-61
2022/01/10 01:42:04;;;;;;;8.70;4.10;;;;;;;3.85;72.69;98595.51;25092;1315;3058721;-61
2022/01/10 01:44:33;;;;;;;9.60;5.00;;;;;;;3.77;73.21;98590.52;25069;1315;3050056;-60
2022/01/10 01:47:03;;;;;;;11.20;4.20;;;;;;;3.69;73.12;98593.46;25102;1315;3028694;-60
2022/01/10 01:49:32;;;;;;;9.00;4.80;;;;;;;3.55;73.94;98590.45;25078;1315;3055560;-63
2022/01/10 01:52:01;;;;;;;9.60;4.90;;;;;;;3.49;74.28;98585.88;25098;1315;3026815;-61
2022/01/10 01:54:30;;;;;;;10.40;5.70;;;;;;;3.48;74.43;98592.34;25069;1315;3053495;-63
2022/01/10 01:56:59;;;;;;;10.30;4.40;;;;;;;3.99;73.30;98587.02;25102;1315;3030068;-62
2022/01/10 01:59:28;;;;;;;11.70;4.80;;;;;;;4.63;71.16;98580.83;25059;1315;3054273;-61
2022/01/10 02:01:57;;;;;;;11.90;5.70;;;;;;;4.70;70.33;98579.73;25067;1315;3026563;-63
2022/01/10 02:04:26;;;;;;;11.10;4.60;;;;;;;4.49;70.61;98577.83;25073;1315;3048111;-63
2022/01/10 02:06:58;;;;;;;14.70;5.90;;;;;;;4.34;71.19;98581.22;25073;1315;3027718;-62
2022/01/10 02:09:27;;;;;;;10.70;5.50;;;;;;;4.14;71.83;98582.01;25057;1315;3029078;-61
2022/01/10 02:11:57;;;;;;;8.10;4.60;;;;;;;4.02;72.29;98576.69;25126;1315;3026911;-62
2022/01/10 02:14:26;;;;;;;8.40;4.70;;;;;;;3.85;72.79;98575.57;25074;1315;3026336;-63
2022/01/10 02:16:56;;;;;;;8.60;4.80;;;;;;;3.70;73.31;98579.04;25088;1315;3026624;-61
2022/01/10 02:20:08;;;;;;;8.60;4.80;;;;;;;3.57;74.02;98577.90;25073;1315;3059267;-62
2022/01/10 02:22:38;;;;;;;8.70;4.30;;;;;;;3.44;74.49;98573.30;25063;1315;3050419;-63
2022/01/10 02:25:23;;;;;;;6.70;3.70;;;;;;;3.41;74.89;98560.64;25058;1315;3053281;-61
2022/01/10 02:27:52;;;;;;;8.10;4.40;;;;;;;3.95;73.54;98555.02;25058;1315;3026289;-61
2022/01/10 02:30:21;;;;;;;11.00;4.60;;;;;;;4.53;71.51;98555.42;25059;1316;3026538;-62
2022/01/10 02:32:51;;;;;;;7.90;4.50;;;;;;;4.73;70.66;98556.36;25098;1315;3055057;-62
2022/01/10 02:35:26;;;;;;;7.30;4.20;;;;;;;4.55;70.64;98560.21;25083;1318;3026422;-61
2022/01/10 02:37:55;;;;;;;7.50;4.30;;;;;;;4.24;71.51;98565.55;25062;1315;3048878;-60
2022/01/10 02:40:27;;;;;;;9.90;4.90;;;;;;;4.05;72.37;98565.77;25087;1315;3026953;-64
2022/01/10 02:42:57;;;;;;;6.90;4.30;;;;;;;3.82;73.20;98573.99;25084;1314;3027066;-62
2022/01/10 02:45:26;;;;;;;12.30;4.80;;;;;;;3.69;73.75;98577.16;25029;1315;3027177;-62
2022/01/10 02:47:55;;;;;;;7.70;4.50;;;;;;;3.62;74.01;98580.81;25095;1315;3026729;-59
2022/01/10 02:51:55;;;;;;;9.40;4.80;;;;;;;3.56;74.24;98575.89;31497;1319;3026395;-63
2022/01/10 02:54:25;;;;;;;9.40;5.10;;;;;;;3.65;74.17;98577.34;24921;1321;3026875;-63
2022/01/10 02:56:55;;;;;;;8.80;4.30;;;;;;;4.05;73.31;98573.76;24995;1320;3027643;-62
2022/01/10 02:59:25;;;;;;;11.40;4.60;;;;;;;4.23;72.69;98572.21;25028;1321;3027175;-62
2022/01/10 03:01:54;;;;;;;8.40;4.50;;;;;;;4.23;72.61;98572.38;25047;1318;3026792;-58
2022/01/10 03:04:24;;;;;;;13.50;4.70;;;;;;;4.13;73.12;98576.86;24874;1318;3237326;-62
2022/01/10 03:06:53;;;;;;;11.50;5.20;;;;;;;3.96;73.72;98589.95;25073;1317;3026719;-62
2022/01/10 03:09:22;;;;;;;10.60;5.30;;;;;;;3.87;74.11;98603.56;25087;1318;3054797;-62
2022/01/10 03:11:52;;;;;;;10.60;5.90;;;;;;;3.80;74.59;98616.33;25070;1318;3026707;-62
2022/01/10 03:14:21;;;;;;;10.60;4.90;;;;;;;3.72;75.08;98618.79;25090;1315;3052367;-62
2022/01/10 03:16:50;;;;;;;8.20;4.60;;;;;;;3.66;75.09;98619.92;25123;1315;3026414;-62
2022/01/10 03:19:20;;;;;;;11.50;4.40;;;;;;;4.13;74.24;98616.36;25087;1315;3069379;-63
2022/01/10 03:21:49;;;;;;;8.90;4.30;;;;;;;4.68;72.23;98616.28;25074;1315;3026718;-62
2022/01/10 03:24:19;;;;;;;11.30;4.50;;;;;;;4.72;71.73;98624.05;25104;1315;3052163;-62
2022/01/10 03:26:48;;;;;;;8.40;4.00;;;;;;;4.64;72.18;98624.15;25076;1315;3029886;-63
2022/01/10 03:29:17;;;;;;;7.90;4.70;;;;;;;4.55;72.41;98620.91;25067;1315;3029156;-61
2022/01/10 03:31:45;;;;;;;9.20;3.80;;;;;;;4.41;72.72;98619.31;25081;1315;3049911;-61
2022/01/10 03:34:15;;;;;;;8.90;4.90;;;;;;;4.26;73.25;98626.30;25096;1315;3029587;-62
2022/01/10 03:36:45;;;;;;;7.90;4.50;;;;;;;4.15;73.77;98633.06;25124;1315;3026478;-62
2022/01/10 03:39:14;;;;;;;9.00;5.10;;;;;;;4.09;73.81;98632.31;25125;1315;3026948;-62
2022/01/10 03:41:43;;;;;;;8.20;4.90;;;;;;;3.97;74.36;98632.16;25075;1315;3026548;-61
2022/01/10 03:44:13;;;;;;;9.50;5.40;;;;;;;3.90;74.65;98635.27;25117;1315;3028829;-60
2022/01/10 03:46:42;;;;;;;8.80;5.30;;;;;;;3.89;75.13;98641.07;25088;1315;3028277;-60
2022/01/10 03:49:11;;;;;;;11.40;5.60;;;;;;;4.36;73.85;98639.88;25076;1315;3054389;-61
2022/01/10 03:51:41;;;;;;;8.40;4.30;;;;;;;4.97;72.08;98634.80;25129;1315;3026411;-60
2022/01/10 03:54:09;;;;;;;8.70;4.90;;;;;;;5.10;70.94;98635.34;25070;1315;3052049;-60
2022/01/10 03:56:38;;;;;;;9.30;4.70;;;;;;;5.00;71.13;98641.23;25061;1314;3026281;-62
2022/01/10 03:59:09;;;;;;;8.60;5.20;;;;;;;4.85;71.41;98640.23;25090;1315;3049342;-62
2022/01/10 04:01:39;;;;;;;12.20;5.30;;;;;;;4.68;71.99;98640.42;25087;1318;3026928;-62
2022/01/10 04:04:09;;;;;;;10.00;5.60;;;;;;;4.60;72.19;98645.85;25114;1315;3026777;-61
2022/01/10 04:06:38;;;;;;;12.00;6.30;;;;;;;4.43;72.58;98647.52;25070;1316;3029793;-63
2022/01/10 04:09:07;;;;;;;15.10;7.00;;;;;;;4.34;73.26;98647.45;25050;1318;3053794;-63
2022/01/10 04:11:36;;;;;;;19.20;8.10;;;;;;;4.21;73.88;98649.09;25039;1318;3026140;-64
2022/01/10 04:14:05;;;;;;;16.20;7.70;;;;;;;4.11;74.32;98654.57;25070;1315;3048875;-60
2022/01/10 04:16:35;;;;;;;16.60;8.20;;;;;;;4.07;74.47;98656.85;25060;1318;3026230;-61
2022/01/10 04:19:04;;;;;;;16.10;6.30;;;;;;;4.04;74.76;98654.20;25067;1315;3025972;-60
2022/01/10 04:21:35;;;;;;;12.10;6.00;;;;;;;4.55;73.49;98649.17;25105;1315;3049761;-64
2022/01/10 04:24:04;;;;;;;15.10;7.10;;;;;;;5.08;71.44;98641.36;25093;1315;3026279;-62
2022/01/10 04:26:34;;;;;;;12.70;6.00;;;;;;;5.16;70.77;98641.45;25086;1315;3070340;-62
2022/01/10 04:29:03;;;;;;;15.20;6.40;;;;;;;4.99;70.91;98637.11;25045;1315;3026351;-61
2022/01/10 04:31:33;;;;;;;16.00;6.90;;;;;;;4.86;71.34;98641.76;25075;1315;3052260;-62
2022/01/10 04:34:02;;;;;;;18.40;8.10;;;;;;;4.70;71.83;98649.48;25070;1315;3027322;-62
2022/01/10 04:36:31;;;;;;;11.10;6.50;;;;;;;4.55;72.53;98658.20;25080;1318;3026352;-61
2022/01/10 04:39:00;;;;;;;17.10;8.60;;;;;;;4.41;73.13;98658.21;25101;1315;3026854;-64
2022/01/10 04:41:32;;;;;;;13.90;7.60;;;;;;;4.30;73.33;98662.20;25104;1315;3069889;-64
2022/01/10 04:44:03;;;;;;;14.70;8.00;;;;;;;4.18;73.94;98666.89;25068;1318;3026638;-61
2022/01/10 04:46:34;;;;;;;16.60;8.40;;;;;;;4.11;74.34;98667.73;25047;1315;3026901;-61
2022/01/10 04:49:03;;;;;;;14.90;9.20;;;;;;;4.08;74.26;98666.70;25041;1315;3026874;-62
2022/01/10 04:51:33;;;;;;;12.40;7.70;;;;;;;4.03;74.79;98669.33;25105;1318;3050463;-63
2022/01/10 04:54:02;;;;;;;17.20;8.00;;;;;;;4.55;73.62;98668.61;25059;1318;3026636;-63
2022/01/10 04:56:32;;;;;;;17.30;7.50;;;;;;;5.18;71.48;98667.23;25043;1315;3026718;-62
2022/01/10 04:59:01;;;;;;;15.80;7.90;;;;;;;5.25;70.39;98665.13;25054;1315;3026430;-63
2022/01/10 05:01:30;;;;;;;12.00;7.50;;;;;;;5.08;70.79;98676.55;25078;1315;3026614;-63
2022/01/10 05:04:01;;;;;;;16.90;8.00;;;;;;;4.92;71.07;98679.11;25085;1315;3027021;-62
2022/01/10 05:06:30;;;;;;;16.70;8.40;;;;;;;4.74;71.60;98681.73;25054;1314;3026602;-62
2022/01/10 05:08:59;;;;;;;15.80;8.00;;;;;;;4.60;72.15;98687.48;25080;1315;3049028;-62
2022/01/10 05:11:41;;;;;;;13.40;7.40;;;;;;;4.49;72.61;98688.14;25093;1315;3056082;-63
2022/01/10 05:14:11;;;;;;;15.20;8.10;;;;;;;4.42;72.95;98688.30;25104;1315;3026589;-63
2022/01/10 05:16:41;;;;;;;17.00;8.20;;;;;;;4.33;73.53;98688.58;25054;1315;3027659;-61
2022/01/10 05:19:11;;;;;;;15.20;8.00;;;;;;;4.23;73.75;98686.07;25093;1315;3026591;-61
2022/01/10 05:21:40;;;;;;;14.10;7.60;;;;;;;4.15;73.95;98684.75;25108;1315;3027078;-62
2022/01/10 05:24:09;;;;;;;16.20;8.30;;;;;;;4.12;74.21;98687.29;25081;1315;3068257;-64
2022/01/10 05:26:40;;;;;;;14.10;8.00;;;;;;;4.11;74.21;98690.30;25086;1315;3028099;-62
2022/01/10 05:29:09;;;;;;;19.30;7.80;;;;;;;4.62;72.95;98693.09;25114;1315;3026322;-61
2022/01/10 05:31:38;;;;;;;15.90;7.80;;;;;;;5.18;70.87;98692.42;25034;1315;3071563;-62
2022/01/10 05:34:15;;;;;;;16.10;7.70;;;;;;;5.36;70.30;98698.61;25104;1315;3053410;-62
2022/01/10 05:36:44;;;;;;;13.50;7.00;;;;;;;5.25;70.02;98703.66;25087;1315;3026533;-62
2022/01/10 05:39:13;;;;;;;17.20;8.30;;;;;;;5.09;70.49;98701.88;25072;1315;3068042;-64
2022/01/10 05:41:43;;;;;;;17.00;8.70;;;;;;;4.85;71.05;98708.11;25048;1315;3026481;-61
2022/01/10 05:44:12;;;;;;;14.60;8.30;;;;;;;4.70;71.58;98711.45;25076;1315;3049101;-61
2022/01/10 05:46:43;;;;;;;14.50;8.40;;;;;;;4.59;72.00;98713.00;25061;1316;3026464;-62
2022/01/10 05:49:13;;;;;;;16.00;9.50;;;;;;;4.42;72.68;98716.04;25074;1315;3027530;-63
2022/01/10 05:51:42;;;;;;;16.80;10.00;;;;;;;4.35;73.18;98718.80;25101;1315;3027136;-63
2022/01/10 05:54:29;;;;;;;23.00;11.30;;;;;;;4.23;73.48;98721.96;25069;1315;3052438;-61
2022/01/10 05:57:00;;;;;;;24.90;13.20;;;;;;;4.15;73.69;98719.20;25072;1315;3042698;-62
2022/01/10 05:59:31;;;;;;;23.70;11.80;;;;;;;4.08;73.99;98717.63;25120;1315;3050917;-61
2022/01/10 06:02:02;;;;;;;16.10;10.20;;;;;;;4.03;74.48;98720.63;25090;1315;3026498;-63
2022/01/10 06:04:31;;;;;;;20.40;9.50;;;;;;;4.58;73.10;98718.77;25047;1315;3026793;-63
2022/01/10 06:07:13;;;;;;;14.30;7.70;;;;;;;5.17;71.04;98714.85;25067;1315;3052249;-62
2022/01/10 06:09:43;;;;;;;15.10;8.30;;;;;;;5.30;70.38;98707.45;25074;1315;3026743;-63
2022/01/10 06:12:12;;;;;;;17.30;9.00;;;;;;;5.15;70.38;98709.91;25090;1315;3029306;-62
2022/01/10 06:14:41;;;;;;;16.20;9.20;;;;;;;5.02;70.80;98713.48;25102;1315;3052113;-60
2022/01/10 06:17:10;;;;;;;17.90;11.00;;;;;;;4.79;71.54;98719.69;25065;1315;3028828;-61
2022/01/10 06:19:40;;;;;;;15.00;9.50;;;;;;;4.60;72.40;98729.59;25093;1315;3056885;-62
2022/01/10 06:22:09;;;;;;;15.20;8.80;;;;;;;4.51;72.83;98732.45;25019;1315;3027371;-63
2022/01/10 06:24:38;;;;;;;18.50;10.00;;;;;;;4.43;73.01;98742.17;25077;1315;3051067;-61
2022/01/10 06:27:07;;;;;;;18.10;10.40;;;;;;;4.30;73.37;98747.65;25080;1315;3026608;-60
2022/01/10 06:29:36;;;;;;;15.20;10.40;;;;;;;4.23;73.70;98757.52;25095;1315;3054571;-61
2022/01/10 06:32:06;;;;;;;19.50;11.20;;;;;;;4.18;73.90;98760.52;25108;1315;3026771;-60
2022/01/10 06:34:36;;;;;;;20.80;11.70;;;;;;;4.08;74.43;98764.58;25103;1315;3051573;-63
2022/01/10 06:37:05;;;;;;;18.90;9.10;;;;;;;4.05;74.85;98768.71;25081;1315;3026920;-61
2022/01/10 06:39:39;;;;;;;18.40;10.30;;;;;;;4.66;73.13;98768.14;25086;1315;3054354;-63
2022/01/10 06:42:07;;;;;;;18.40;9.20;;;;;;;5.27;70.82;98766.45;25114;1315;3026327;-61
2022/01/10 06:44:37;;;;;;;16.70;9.20;;;;;;;5.35;70.08;98761.51;25074;1315;3051574;-62
2022/01/10 06:47:06;;;;;;;19.60;9.10;;;;;;;5.28;70.26;98754.04;25068;1315;3027088;-63
2022/01/10 06:49:35;;;;;;;19.20;10.40;;;;;;;5.14;70.45;98746.07;25083;1315;3027531;-64
2022/01/10 06:52:05;;;;;;;18.20;11.00;;;;;;;5.02;71.09;98751.17;25044;1315;3028655;-63
2022/01/10 06:54:34;;;;;;;26.10;12.60;;;;;;;4.78;71.41;98758.05;25090;1315;3055062;-63
2022/01/10 06:57:04;;;;;;;21.60;11.90;;;;;;;4.70;72.04;98761.77;25087;1315;3028532;-61
2022/01/10 06:59:33;;;;;;;23.70;12.20;;;;;;;4.60;72.51;98758.21;25078;1315;3026847;-63
2022/01/10 07:02:03;;;;;;;21.90;12.10;;;;;;;4.59;72.65;98758.61;25110;1315;3027083;-61
2022/01/10 07:04:32;;;;;;;24.50;12.60;;;;;;;4.56;72.83;98763.94;25134;1315;3058024;-63
2022/01/10 07:07:14;;;;;;;24.40;12.50;;;;;;;4.45;73.18;98765.88;25073;1315;3052355;-61
2022/01/10 07:09:45;;;;;;;22.70;12.40;;;;;;;4.41;73.38;98769.66;25098;1315;3026321;-63
2022/01/10 07:12:15;;;;;;;27.00;12.10;;;;;;;4.40;73.60;98768.36;25091;1315;3028897;-65
2022/01/10 07:14:55;;;;;;;22.10;9.00;;;;;;;4.38;73.62;98770.00;25104;1315;3068740;-63
2022/01/10 07:17:24;;;;;;;19.50;10.40;;;;;;;4.99;72.22;98766.23;25064;1315;3028399;-63
2022/01/10 07:19:54;;;;;;;24.70;12.30;;;;;;;5.56;70.26;98768.10;25092;1315;3054298;-64
2022/01/10 07:22:27;;;;;;;23.80;12.10;;;;;;;5.66;69.83;98764.62;25099;1315;3026426;-66
2022/01/10 07:24:56;;;;;;;22.20;11.10;;;;;;;5.51;70.12;98765.94;25107;1315;3029806;-64
2022/01/10 07:27:25;;;;;;;22.90;12.00;;;;;;;5.40;70.34;98770.49;25097;1315;3026975;-63
2022/01/10 07:29:54;;;;;;;20.60;11.30;;;;;;;5.24;70.76;98769.70;25059;1315;3071010;-61
2022/01/10 07:32:25;;;;;;;27.70;12.40;;;;;;;5.10;71.06;98767.98;25150;1315;3028855;-62
2022/01/10 07:34:54;;;;;;;23.70;12.20;;;;;;;4.87;72.14;98766.85;25167;1315;3054207;-63
2022/01/10 07:37:23;;;;;;;29.20;11.10;;;;;;;4.76;72.38;98768.22;25055;1315;3029918;-63
2022/01/10 07:39:52;;;;;;;23.90;11.50;;;;;;;4.59;72.82;98770.23;25067;1315;3051727;-63
2022/01/10 07:42:21;;;;;;;25.90;11.00;;;;;;;4.49;73.41;98772.80;25093;1315;3026112;-64
2022/01/10 07:44:56;;;;;;;26.80;12.80;;;;;;;4.44;74.11;98775.09;25113;1317;3052063;-62
2022/01/10 07:47:26;;;;;;;27.10;12.10;;;;;;;4.47;73.90;98775.98;25050;1317;3026503;-61
2022/01/10 07:49:55;;;;;;;30.10;13.00;;;;;;;4.41;74.11;98774.69;25068;1315;3026547;-62
2022/01/10 07:52:26;;;;;;;25.70;10.50;;;;;;;4.43;74.37;98779.31;25076;1314;3048655;-61
2022/01/10 07:54:55;;;;;;;24.60;10.40;;;;;;;5.01;72.72;98771.52;25101;1315;3029934;-63
2022/01/10 07:57:25;;;;;;;22.90;10.60;;;;;;;5.61;70.56;98770.80;25088;1315;3026600;-63
2022/01/10 07:59:54;;;;;;;26.40;13.00;;;;;;;5.72;69.84;98772.83;25081;1315;3026526;-67
2022/01/10 08:02:24;;;;;;;26.10;11.80;;;;;;;5.67;69.87;98775.17;25114;1314;3052142;-64
2022/01/10 08:04:53;;;;;;;30.20;13.30;;;;;;;5.49;70.35;98773.15;25057;1315;3025901;-62
2022/01/10 08:07:22;;;;;;;30.80;14.30;;;;;;;5.34;71.04;98769.89;25073;1315;3029827;-66
2022/01/10 08:09:50;;;;;;;31.10;14.60;;;;;;;5.25;71.46;98767.77;25068;1315;3055023;-63
2022/01/10 08:12:19;;;;;;;29.90;13.20;;;;;;;5.07;72.05;98774.35;25027;1315;3027625;-63
2022/01/10 08:14:49;;;;;;;30.10;13.50;;;;;;;4.97;72.34;98771.89;25034;1318;3052164;-62
2022/01/10 08:17:18;;;;;;;21.70;11.10;;;;;;;4.87;72.57;98773.08;25067;1315;3026838;-63
2022/01/10 08:19:47;;;;;;;26.60;12.00;;;;;;;4.78;72.82;98771.08;25057;1315;3058885;-64
2022/01/10 08:22:16;;;;;;;26.70;12.10;;;;;;;4.71;73.01;98776.27;25076;1315;3026612;-67
2022/01/10 08:24:45;;;;;;;23.50;11.60;;;;;;;4.64;73.35;98785.07;25026;1315;3050581;-64
2022/01/10 08:27:14;;;;;;;24.80;11.60;;;;;;;4.59;73.49;98781.70;25066;1315;3026259;-65
2022/01/10 08:29:42;;;;;;;22.30;9.90;;;;;;;4.56;73.73;98779.58;25052;1315;3054535;-61
2022/01/10 08:32:15;;;;;;;22.50;9.90;;;;;;;5.07;72.35;98774.90;25041;1318;3026927;-62
2022/01/10 08:34:44;;;;;;;21.70;10.20;;;;;;;5.67;70.32;98772.77;25060;1315;3027206;-63
2022/01/10 08:37:13;;;;;;;21.90;10.20;;;;;;;5.82;69.63;98766.75;25016;1314;3026478;-65
2022/01/10 08:39:42;;;;;;;26.10;11.20;;;;;;;5.69;69.50;98764.66;25037;1315;3054872;-62
2022/01/10 08:42:11;;;;;;;23.10;10.50;;;;;;;5.56;69.99;98768.27;25040;1318;3028636;-63
2022/01/10 08:44:40;;;;;;;23.90;11.60;;;;;;;5.43;70.63;98771.55;25092;1315;3051933;-60
2022/01/10 08:47:09;;;;;;;25.30;12.00;;;;;;;5.27;71.38;98774.61;25087;1315;3026180;-66
2022/01/10 08:49:38;;;;;;;29.00;11.70;;;;;;;5.21;71.51;98772.98;25082;1315;3052642;-63
2022/01/10 08:52:07;;;;;;;25.50;12.00;;;;;;;5.10;71.80;98767.45;25089;1315;3026603;-65
2022/01/10 08:54:35;;;;;;;22.80;11.30;;;;;;;5.04;72.12;98769.63;25060;1315;3067734;-63
2022/01/10 08:57:05;;;;;;;23.80;11.60;;;;;;;4.98;72.33;98769.73;25066;1315;3026637;-62
2022/01/10 08:59:34;;;;;;;22.60;11.80;;;;;;;4.98;72.33;98763.33;25083;1315;3053900;-63
2022/01/10 09:02:03;;;;;;;26.40;12.30;;;;;;;4.91;72.76;98761.61;25061;1315;3026460;-61
2022/01/10 09:04:34;;;;;;;26.40;12.90;;;;;;;4.88;73.05;98758.95;25128;1315;3053905;-64
2022/01/10 09:07:05;;;;;;;28.40;11.20;;;;;;;4.96;73.11;98757.38;25106;1315;3027018;-65
2022/01/10 09:09:35;;;;;;;28.40;11.60;;;;;;;5.48;71.62;98758.28;25066;1315;3026714;-62
2022/01/10 09:12:07;;;;;;;24.20;11.50;;;;;;;6.08;69.44;98756.42;25088;1315;3026800;-63
2022/01/10 09:14:37;;;;;;;21.40;11.40;;;;;;;6.16;68.55;98762.23;25076;1315;3027426;-62
2022/01/10 09:17:06;;;;;;;24.40;12.00;;;;;;;6.04;68.76;98767.20;25068;1315;3026045;-63
2022/01/10 09:19:35;;;;;;;27.10;12.70;;;;;;;5.88;69.36;98762.80;25100;1315;3026522;-62
2022/01/10 09:22:04;;;;;;;29.40;13.60;;;;;;;5.79;69.69;98762.07;25057;1315;3055686;-62
2022/01/10 09:24:33;;;;;;;27.20;14.10;;;;;;;5.67;70.07;98758.02;25065;1315;3027035;-63
2022/01/10 09:27:02;;;;;;;31.00;13.70;;;;;;;5.57;71.05;98760.40;25100;1315;3048384;-64
2022/01/10 09:29:31;;;;;;;26.80;14.70;;;;;;;5.45;71.05;98751.48;25070;1315;3026568;-65
2022/01/10 09:32:00;;;;;;;29.00;15.10;;;;;;;5.32;71.69;98749.13;25117;1315;3026870;-64
2022/01/10 09:34:29;;;;;;;32.10;16.00;;;;;;;5.30;71.90;98744.73;25058;1315;3048319;-63
2022/01/10 09:36:57;;;;;;;27.60;14.20;;;;;;;5.19;72.18;98749.80;25110;1315;3026361;-63
2022/01/10 09:39:27;;;;;;;31.10;15.30;;;;;;;5.14;72.31;98744.51;25056;1315;3070153;-65
2022/01/10 09:41:57;;;;;;;26.30;14.70;;;;;;;5.16;72.18;98749.44;25126;1315;3026275;-66
2022/01/10 09:44:26;;;;;;;32.90;15.70;;;;;;;5.12;72.14;98743.73;25048;1315;3052806;-68
2022/01/10 09:46:56;;;;;;;24.70;12.20;;;;;;;5.17;72.41;98748.71;25042;1315;3029017;-67
2022/01/10 09:49:25;;;;;;;23.70;12.20;;;;;;;5.92;70.72;98740.20;25069;1315;3026272;-64
2022/01/10 09:51:53;;;;;;;26.40;13.00;;;;;;;6.43;68.46;98737.31;25080;1315;3053687;-63
2022/01/10 09:54:22;;;;;;;23.90;12.80;;;;;;;6.57;67.81;98736.00;25014;1317;3028542;-66
2022/01/10 09:56:51;;;;;;;27.20;14.30;;;;;;;6.63;67.39;98736.34;25074;1318;3052878;-64
2022/01/10 09:59:20;;;;;;;30.30;15.60;;;;;;;6.54;67.50;98739.13;25074;1318;3027251;-63
2022/01/10 10:01:50;;;;;;;34.90;17.00;;;;;;;6.41;68.23;98741.21;25078;1315;3051003;-63
2022/01/10 10:04:19;;;;;;;35.20;17.10;;;;;;;6.30;68.91;98746.70;25058;1315;3029536;-64
2022/01/10 10:06:47;;;;;;;34.10;17.80;;;;;;;6.27;69.23;98751.41;25074;1315;3026490;-65
2022/01/10 10:09:17;;;;;;;31.90;16.40;;;;;;;6.21;69.53;98752.08;25047;1315;3048954;-67
2022/01/10 10:11:50;;;;;;;30.80;17.00;;;;;;;6.15;69.11;98755.48;25120;1315;3026538;-68
2022/01/10 10:14:26;;;;;;;30.50;18.10;;;;;;;6.17;69.10;98756.96;25076;1315;3057774;-68
2022/01/10 10:16:57;;;;;;;39.00;21.20;;;;;;;6.09;69.70;98758.61;25073;1314;3026897;-64
2022/01/10 10:19:28;;;;;;;43.00;22.10;;;;;;;6.08;69.71;98756.05;25116;1315;3026373;-66
2022/01/10 10:21:57;;;;;;;47.10;23.20;;;;;;;6.02;70.18;98756.36;25096;1314;3026821;-66
2022/01/10 10:24:26;;;;;;;54.00;24.00;;;;;;;6.04;70.27;98746.52;25137;1314;3025812;-67
2022/01/10 10:26:56;;;;;;;44.50;22.40;;;;;;;5.94;70.48;98741.27;25078;1314;3026882;-65
2022/01/10 10:29:25;;;;;;;44.00;23.20;;;;;;;5.94;70.74;98741.64;25075;1315;3053000;-65
2022/01/10 10:31:55;;;;;;;46.10;21.50;;;;;;;5.91;71.12;98737.10;25078;1314;3027326;-64
2022/01/10 10:34:27;;;;;;;47.60;22.80;;;;;;;6.39;70.12;98742.55;25135;1315;3052824;-64
2022/01/10 10:37:03;;;;;;;51.70;24.30;;;;;;;6.91;68.01;98741.41;25080;1314;3026890;-65
2022/01/10 10:39:34;;;;;;;54.20;25.50;;;;;;;7.11;67.64;98740.46;25069;1314;3072007;-65
2022/01/10 10:42:05;;;;;;;64.40;28.30;;;;;;;7.01;67.29;98742.90;25098;1314;3026805;-63
2022/01/10 10:44:34;;;;;;;58.40;29.00;;;;;;;6.59;68.35;98743.02;25078;1314;3026888;-64
2022/01/10 10:47:03;;;;;;;56.10;27.50;;;;;;;6.46;69.25;98744.41;25036;1314;3026518;-64
2022/01/10 10:49:36;;;;;;;58.90;30.50;;;;;;;6.41;69.61;98750.13;25084;1315;3051514;-64
2022/01/10 10:52:07;;;;;;;61.50;30.40;;;;;;;6.22;70.43;98744.67;25139;1314;3026578;-64
2022/01/10 10:54:37;;;;;;;58.20;30.30;;;;;;;6.17;70.59;98743.54;25072;1314;3026502;-65
2022/01/10 10:57:07;;;;;;;69.40;31.80;;;;;;;6.10;70.73;98742.36;25114;1315;3026511;-63
2022/01/10 10:59:40;;;;;;;69.40;33.10;;;;;;;6.06;70.64;98746.96;25083;1315;3054704;-65
2022/01/10 11:02:09;;;;;;;57.80;30.10;;;;;;;5.96;70.56;98751.08;25059;1314;3030474;-67
2022/01/10 11:04:40;;;;;;;72.60;34.40;;;;;;;5.73;71.18;98762.18;25108;1314;3026347;-64
2022/01/10 11:07:09;;;;;;;69.90;31.10;;;;;;;5.54;71.67;98767.15;25053;1315;3026428;-65
2022/01/10 11:09:38;;;;;;;84.00;34.00;;;;;;;5.22;73.10;98770.67;25094;1314;3026280;-60
2022/01/10 11:12:07;;;;;;;70.70;29.00;;;;;;;5.07;74.07;98768.63;25043;1315;3029969;-64
2022/01/10 11:14:37;;;;;;;70.80;30.90;;;;;;;5.76;72.38;98769.01;25087;1315;3052318;-65
2022/01/10 11:17:06;;;;;;;78.80;34.10;;;;;;;6.16;70.63;98764.34;25007;1318;3026677;-63
2022/01/10 11:19:35;;;;;;;73.40;33.30;;;;;;;5.85;71.25;98771.30;25068;1315;3060417;-65
2022/01/10 11:22:05;;;;;;;78.20;35.90;;;;;;;5.25;73.16;98775.90;25030;1314;3029927;-64
2022/01/10 11:24:44;;;;;;;87.20;37.70;;;;;;;4.86;74.60;98776.23;25946;1315;3052368;-64
2022/01/10 11:27:33;;;;;;;77.30;37.40;;;;;;;4.67;75.60;98776.27;25404;1314;3056979;-62
2022/01/10 11:30:28;;;;;;;83.20;36.80;;;;;;;4.49;76.60;98781.47;25038;1314;3051363;-62
2022/01/10 11:33:05;;;;;;;92.60;40.60;;;;;;;4.37;76.76;98784.59;25070;1315;3055959;-66
2022/01/10 11:35:48;;;;;;;78.50;33.90;;;;;;;4.44;77.04;98784.47;25047;1314;3050189;-63
2022/01/10 11:38:38;;;;;;;67.80;32.50;;;;;;;4.97;75.94;98784.02;25098;1315;3069439;-65
2022/01/10 11:41:11;;;;;;;84.80;34.20;;;;;;;5.47;73.81;98786.30;25038;1314;3048930;-64